Ken Boothe Sr — WDG3360 — position and weather

sailwx.info

Track history (hours):
 
Tides and Currents Weather Stations Pressure Air Temp Water Temp Dewpoint Dewpoint Depression Visibility Wind Speed Wind Dir Waves Ship Positions

Ken Boothe Sr

More information available from US FCC via Universal Licensing System and Coast Guard Vessel Documentation Center.

Last reported at 2014-Sep-02 14:12 UTC. Time now 2014-Sep-02 21:24 UTC.
Position N 46°35' W 087°23'.

Length 30 m; draft 6 m.

Type: Towing. MMSI: 367525230.

Date/timePositionNaut miles runAvg speedWind from/ knotsBaromVisibWave heightAir tempDewpointWater temp
2014-Sep-02 14:12N 46°35' W 087°23'137 5.1
2014-Sep-01 11:26N 46°15' W 084°06'8 8.6
2014-Sep-01 10:33N 46°08' W 084°01'11 9.6
2014-Sep-01 09:28N 45°59' W 083°53'1111.5
2014-Sep-01 08:33N 45°49' W 083°49'  
2014-Aug-29 14:16N 45°53' W 083°49'1010.6
2014-Aug-29 13:21N 46°02' W 083°55'7 9.2
2014-Aug-29 12:33N 46°08' W 084°01'9 8.9
2014-Aug-29 11:33N 46°14' W 084°11'6 5.9
2014-Aug-29 10:29N 46°20' W 084°13'12 3.9
2014-Aug-29 07:18N 46°30' W 084°23'6 8.6
2014-Aug-29 06:33N 46°27' W 084°32'1611.1
2014-Aug-29 05:08N 46°39' W 084°47'11 0.3
2014-Aug-27 13:25N 46°30' W 084°37'26 4.9
2014-Aug-27 08:03N 46°14' W 084°07'5 9.0
2014-Aug-27 07:29N 46°09' W 084°03'11 9.8
2014-Aug-27 06:24N 46°01' W 083°53'1011.1
2014-Aug-27 05:31N 45°52' W 083°51'  
2014-Aug-24 03:23N 45°34' W 083°27'1011.7
2014-Aug-24 02:33N 45°42' W 083°36'1111.5
2014-Aug-24 01:33N 45°51' W 083°46'1211.0
2014-Aug-24 00:29N 46°01' W 083°54'8 9.1
2014-Aug-23 23:33N 46°08' W 084°01'9 8.7
2014-Aug-23 22:29N 46°14' W 084°11'  
Track history (hours):
 
Tides and Currents Weather Stations Pressure Air Temp Water Temp Dewpoint Dewpoint Depression Visibility Wind Speed Wind Dir Waves Ship Positions

Ken Boothe Sr

More information available from US FCC via Universal Licensing System and Coast Guard Vessel Documentation Center.

Last reported at 2014-Sep-02 14:12 UTC. Time now 2014-Sep-02 21:24 UTC.
Position N 46°35' W 087°23'.

Length 30 m; draft 6 m.

Type: Towing. MMSI: 367525230.

Date/timePositionNaut miles runAvg speedWind from/ knotsBaromVisibWave heightAir tempDewpointWater temp
2014-Sep-02 14:12N 46°35' W 087°23'137 5.1
2014-Sep-01 11:26N 46°15' W 084°06'8 8.6
2014-Sep-01 10:33N 46°08' W 084°01'11 9.6
2014-Sep-01 09:28N 45°59' W 083°53'1111.5
2014-Sep-01 08:33N 45°49' W 083°49'  
2014-Aug-29 14:16N 45°53' W 083°49'1010.6
2014-Aug-29 13:21N 46°02' W 083°55'7 9.2
2014-Aug-29 12:33N 46°08' W 084°01'9 8.9
2014-Aug-29 11:33N 46°14' W 084°11'6 5.9
2014-Aug-29 10:29N 46°20' W 084°13'12 3.9
2014-Aug-29 07:18N 46°30' W 084°23'6 8.6
2014-Aug-29 06:33N 46°27' W 084°32'1611.1
2014-Aug-29 05:08N 46°39' W 084°47'11 0.3
2014-Aug-27 13:25N 46°30' W 084°37'26 4.9
2014-Aug-27 08:03N 46°14' W 084°07'5 9.0
2014-Aug-27 07:29N 46°09' W 084°03'11 9.8
2014-Aug-27 06:24N 46°01' W 083°53'1011.1
2014-Aug-27 05:31N 45°52' W 083°51'  
2014-Aug-24 03:23N 45°34' W 083°27'1011.7
2014-Aug-24 02:33N 45°42' W 083°36'1111.5
2014-Aug-24 01:33N 45°51' W 083°46'1211.0
2014-Aug-24 00:29N 46°01' W 083°54'8 9.1
2014-Aug-23 23:33N 46°08' W 084°01'9 8.7
2014-Aug-23 22:29N 46°14' W 084°11'  

Dump ship's entire track history